MSC Ingrid — HOHA — position and weather

sailwx.info

Track history (hours):
 
Tides and Currents Weather Stations Pressure Air Temp Water Temp Dewpoint Dewpoint Depression Visibility Wind Speed Wind Dir Waves Ship Positions

MSC Ingrid

Last reported at 2016-Dec-08 05:33 UTC. Time now 2016-Dec-10 07:04 UTC.
Position N 39°39' E 024°04'.

Length 294 m; draft 8.6 m.

Type: Ship (hazmat cat A). MMSI: 354505000.

Date/timePositionNaut miles runAvg speedWind from/ knotsBaromVisibWave heightAir tempDewpointWater temp
2016-Dec-08 05:33N 39°39' E 024°04'10915.6
2016-Dec-07 22:33N 37°51' E 024°29'1917.1
2016-Dec-07 21:28N 37°39' E 024°12'1516.9
2016-Dec-07 20:33N 37°37' E 023°52'1716.7
2016-Dec-07 19:34N 37°49' E 023°37'9 8.8
2016-Dec-07 18:34N 37°57' E 023°36'0 0.0
2016-Dec-07 17:31N 37°57' E 023°36'0 0.0
2016-Dec-07 16:28N 37°57' E 023°36'0 0.0
2016-Dec-07 15:31N 37°57' E 023°36'0 0.0
2016-Dec-07 14:28N 37°57' E 023°36'0 0.0
2016-Dec-07 13:31N 37°57' E 023°36'0 0.0
2016-Dec-07 12:34N 37°57' E 023°36'0 0.0
2016-Dec-07 11:30N 37°57' E 023°36'0 0.0
2016-Dec-07 10:30N 37°57' E 023°36'0 0.0
2016-Dec-07 09:33N 37°57' E 023°36'0 0.0
2016-Dec-07 08:33N 37°57' E 023°36'0 0.0
2016-Dec-07 07:33N 37°57' E 023°36'0 0.0
2016-Dec-07 06:33N 37°57' E 023°36'2 2.1
2016-Dec-07 05:34N 37°55' E 023°35'2 1.8
2016-Dec-07 04:34N 37°54' E 023°36'1 0.7
2016-Dec-07 03:33N 37°53' E 023°36'9 8.9
2016-Dec-07 02:34N 37°46' E 023°42'1616.2
2016-Dec-07 01:34N 37°29' E 023°42'43418.1
2016-Dec-06 01:29N 36°24' E 014°45'1920.6
2016-Dec-06 00:34N 36°30' E 014°22'2120.7
2016-Dec-05 23:34N 36°36' E 013°58'2120.4
2016-Dec-05 22:32N 36°43' E 013°33'78021.0
2016-Dec-04 09:25N 36°17' W 002°37'12820.7
2016-Dec-04 03:15N 36°01' W 005°15'25917.6
2016-Dec-03 12:33N 38°08' W 009°57'2020.3
2016-Dec-03 11:33N 38°28' W 010°02'2020.0
2016-Dec-03 10:33N 38°47' W 010°07'2020.3
2016-Dec-03 09:33N 39°08' W 010°08'23120.6
2016-Dec-02 22:18N 42°59' W 010°06'1621.6
2016-Dec-02 21:33N 43°15' W 010°06'2121.3
2016-Dec-02 20:33N 43°35' W 009°54'2121.3
2016-Dec-02 19:33N 43°53' W 009°40'2121.3
2016-Dec-02 18:33N 44°12' W 009°26'2221.3
2016-Dec-02 17:33N 44°31' W 009°11'19021.1
2016-Dec-02 08:33N 47°19' W 007°04'2221.2
2016-Dec-02 07:30N 47°38' W 006°48'4820.3
2016-Dec-02 05:07N 48°21' W 006°16'1119.2
2016-Dec-02 04:33N 48°31' W 006°08'4418.2
2016-Dec-02 02:10N 49°02' W 005°22'1320.2
2016-Dec-02 01:33N 49°09' W 005°06'2020.6
2016-Dec-02 00:33N 49°20' W 004°40'2121.1
2016-Dec-01 23:33N 49°31' W 004°11'2120.8
2016-Dec-01 22:33N 49°41' W 003°43'2019.7
2016-Dec-01 21:34N 49°51' W 003°17'1818.4
2016-Dec-01 20:33N 49°59' W 002°51'1817.9
2016-Dec-01 19:34N 50°03' W 002°24'1818.2
2016-Dec-01 18:33N 50°09' W 001°57'2019.8
2016-Dec-01 17:34N 50°14' W 001°28'2221.7
2016-Dec-01 16:33N 50°19' W 000°55'2222.0
2016-Dec-01 15:33N 50°25' W 000°21'2121.1
2016-Dec-01 14:33N 50°30' E 000°11'2120.1
2016-Dec-01 13:31N 50°38' E 000°42'1918.8
2016-Dec-01 12:30N 50°51' E 001°03'1717.8
2016-Dec-01 11:34N 51°02' E 001°23'1919.2
2016-Dec-01 10:34N 51°14' E 001°48'1716.6
2016-Dec-01 09:33N 51°22' E 002°11'1919.1
2016-Dec-01 08:33N 51°23' E 002°41'1414.1
2016-Dec-01 07:34N 51°24' E 003°04'1818.2
2016-Dec-01 06:33N 51°25' E 003°33'1110.8
2016-Dec-01 05:33N 51°21' E 003°49'1010.3
2016-Dec-01 04:34N 51°22' E 004°05'8 8.2
2016-Dec-01 03:33N 51°18' E 004°16'1 0.7
2016-Dec-01 02:33N 51°18' E 004°16'0 0.0
2016-Dec-01 01:33N 51°18' E 004°16'0 0.0
2016-Dec-01 00:30N 51°18' E 004°16'0 0.0
2016-Nov-30 23:18N 51°18' E 004°16'0 0.0
2016-Nov-30 22:33N 51°18' E 004°16'0 0.0
2016-Nov-30 21:30N 51°18' E 004°16'0 0.0
2016-Nov-30 20:33N 51°18' E 004°16'0 0.0
2016-Nov-30 19:33N 51°18' E 004°16'0 0.1
2016-Nov-30 18:33N 51°18' E 004°16'0 0.1
2016-Nov-30 17:33N 51°18' E 004°16'0 0.0
2016-Nov-30 16:33N 51°18' E 004°16'0 0.0
2016-Nov-30 15:33N 51°18' E 004°16'0 0.0
2016-Nov-30 14:33N 51°18' E 004°16'0 0.0
2016-Nov-30 13:33N 51°18' E 004°16'0 0.0
2016-Nov-30 12:33N 51°18' E 004°16'0 0.0
2016-Nov-30 11:30N 51°18' E 004°16'0 0.0
2016-Nov-30 10:33N 51°18' E 004°16'0 0.0
2016-Nov-30 09:33N 51°18' E 004°16'0 0.0
2016-Nov-30 08:33N 51°18' E 004°16'0 0.0
2016-Nov-30 07:33N 51°18' E 004°16'0 0.0
2016-Nov-30 06:33N 51°18' E 004°16'0 0.0
2016-Nov-30 05:33N 51°18' E 004°16'0 0.0
2016-Nov-30 04:33N 51°18' E 004°16'0 0.0
2016-Nov-30 03:33N 51°18' E 004°16'0 0.0
2016-Nov-30 02:32N 51°18' E 004°16'0 0.0
2016-Nov-30 01:32N 51°18' E 004°16'0 0.1
2016-Nov-30 00:34N 51°18' E 004°16'4 4.2
2016-Nov-29 23:33N 51°22' E 004°13'1010.3
2016-Nov-29 22:34N 51°25' E 003°58'1010.0
2016-Nov-29 21:33N 51°25' E 003°42'1211.5
2016-Nov-29 20:34N 51°24' E 003°23'1514.7
2016-Nov-29 19:33N 51°25' E 002°60'1615.9
2016-Nov-29 18:33N 51°39' E 003°11'9 9.3
2016-Nov-29 17:33N 51°48' E 003°16'5 4.4
2016-Nov-29 16:28N 51°49' E 003°24'0 0.1
2016-Nov-29 15:25N 51°49' E 003°24'0 0.1
2016-Nov-29 14:31N 51°49' E 003°24'0 0.0
2016-Nov-29 13:31N 51°49' E 003°24'0 0.1
2016-Nov-29 12:31N 51°49' E 003°24'0 0.3
2016-Nov-29 11:31N 51°49' E 003°24'0 0.0
2016-Nov-29 10:31N 51°49' E 003°24'0 0.0
2016-Nov-29 09:31N 51°49' E 003°24'0 0.0
2016-Nov-29 08:28N 51°49' E 003°24'0 0.0
2016-Nov-29 07:34N 51°49' E 003°24'0 0.0
2016-Nov-29 06:33N 51°49' E 003°24'0 0.1
2016-Nov-29 05:33N 51°49' E 003°24'0 0.1
2016-Nov-29 04:34N 51°49' E 003°24'0 0.1
2016-Nov-29 03:33N 51°49' E 003°24'0 0.0
2016-Nov-29 02:21N 51°49' E 003°24'0 0.0
2016-Nov-29 01:33N 51°49' E 003°24'0 0.1
2016-Nov-29 00:33N 51°49' E 003°24'0 0.2
2016-Nov-28 23:30N 51°49' E 003°24'0 0.1
2016-Nov-28 22:31N 51°49' E 003°24'0 0.0
2016-Nov-28 21:33N 51°49' E 003°24'0 0.0
2016-Nov-28 20:33N 51°49' E 003°24'0 0.0
2016-Nov-28 19:30N 51°49' E 003°24'0 0.0
2016-Nov-28 18:30N 51°49' E 003°24'0 0.0
2016-Nov-28 17:10N 51°49' E 003°24'0 0.0
2016-Nov-28 16:33N 51°49' E 003°24'0 0.3
2016-Nov-28 15:32N 51°49' E 003°23'8 7.0
2016-Nov-28 14:19N 51°57' E 003°21'1013.1
2016-Nov-28 13:32N 52°04' E 003°34'1313.6
2016-Nov-28 12:33N 52°03' E 003°55'8 7.5
2016-Nov-28 11:33N 51°58' E 004°05'0 0.4
2016-Nov-28 10:32N 51°58' E 004°04'0 0.0
2016-Nov-28 09:32N 51°58' E 004°04'0 0.0
2016-Nov-28 08:32N 51°58' E 004°04'0 0.0
2016-Nov-28 07:32N 51°58' E 004°04'0 0.0
2016-Nov-28 06:32N 51°58' E 004°04'  
Track history (hours):
 
Tides and Currents Weather Stations Pressure Air Temp Water Temp Dewpoint Dewpoint Depression Visibility Wind Speed Wind Dir Waves Ship Positions

MSC Ingrid

Last reported at 2016-Dec-08 05:33 UTC. Time now 2016-Dec-10 07:04 UTC.
Position N 39°39' E 024°04'.

Length 294 m; draft 8.6 m.

Type: Ship (hazmat cat A). MMSI: 354505000.

Date/timePositionNaut miles runAvg speedWind from/ knotsBaromVisibWave heightAir tempDewpointWater temp
2016-Dec-08 05:33N 39°39' E 024°04'10915.6
2016-Dec-07 22:33N 37°51' E 024°29'1917.1
2016-Dec-07 21:28N 37°39' E 024°12'1516.9
2016-Dec-07 20:33N 37°37' E 023°52'1716.7
2016-Dec-07 19:34N 37°49' E 023°37'9 8.8
2016-Dec-07 18:34N 37°57' E 023°36'0 0.0
2016-Dec-07 17:31N 37°57' E 023°36'0 0.0
2016-Dec-07 16:28N 37°57' E 023°36'0 0.0
2016-Dec-07 15:31N 37°57' E 023°36'0 0.0
2016-Dec-07 14:28N 37°57' E 023°36'0 0.0
2016-Dec-07 13:31N 37°57' E 023°36'0 0.0
2016-Dec-07 12:34N 37°57' E 023°36'0 0.0
2016-Dec-07 11:30N 37°57' E 023°36'0 0.0
2016-Dec-07 10:30N 37°57' E 023°36'0 0.0
2016-Dec-07 09:33N 37°57' E 023°36'0 0.0
2016-Dec-07 08:33N 37°57' E 023°36'0 0.0
2016-Dec-07 07:33N 37°57' E 023°36'0 0.0
2016-Dec-07 06:33N 37°57' E 023°36'2 2.1
2016-Dec-07 05:34N 37°55' E 023°35'2 1.8
2016-Dec-07 04:34N 37°54' E 023°36'1 0.7
2016-Dec-07 03:33N 37°53' E 023°36'9 8.9
2016-Dec-07 02:34N 37°46' E 023°42'1616.2
2016-Dec-07 01:34N 37°29' E 023°42'43418.1
2016-Dec-06 01:29N 36°24' E 014°45'1920.6
2016-Dec-06 00:34N 36°30' E 014°22'2120.7
2016-Dec-05 23:34N 36°36' E 013°58'2120.4
2016-Dec-05 22:32N 36°43' E 013°33'78021.0
2016-Dec-04 09:25N 36°17' W 002°37'12820.7
2016-Dec-04 03:15N 36°01' W 005°15'25917.6
2016-Dec-03 12:33N 38°08' W 009°57'2020.3
2016-Dec-03 11:33N 38°28' W 010°02'2020.0
2016-Dec-03 10:33N 38°47' W 010°07'2020.3
2016-Dec-03 09:33N 39°08' W 010°08'23120.6
2016-Dec-02 22:18N 42°59' W 010°06'1621.6
2016-Dec-02 21:33N 43°15' W 010°06'2121.3
2016-Dec-02 20:33N 43°35' W 009°54'2121.3
2016-Dec-02 19:33N 43°53' W 009°40'2121.3
2016-Dec-02 18:33N 44°12' W 009°26'2221.3
2016-Dec-02 17:33N 44°31' W 009°11'19021.1
2016-Dec-02 08:33N 47°19' W 007°04'2221.2
2016-Dec-02 07:30N 47°38' W 006°48'4820.3
2016-Dec-02 05:07N 48°21' W 006°16'1119.2
2016-Dec-02 04:33N 48°31' W 006°08'4418.2
2016-Dec-02 02:10N 49°02' W 005°22'1320.2
2016-Dec-02 01:33N 49°09' W 005°06'2020.6
2016-Dec-02 00:33N 49°20' W 004°40'2121.1
2016-Dec-01 23:33N 49°31' W 004°11'2120.8
2016-Dec-01 22:33N 49°41' W 003°43'2019.7
2016-Dec-01 21:34N 49°51' W 003°17'1818.4
2016-Dec-01 20:33N 49°59' W 002°51'1817.9
2016-Dec-01 19:34N 50°03' W 002°24'1818.2
2016-Dec-01 18:33N 50°09' W 001°57'2019.8
2016-Dec-01 17:34N 50°14' W 001°28'2221.7
2016-Dec-01 16:33N 50°19' W 000°55'2222.0
2016-Dec-01 15:33N 50°25' W 000°21'2121.1
2016-Dec-01 14:33N 50°30' E 000°11'2120.1
2016-Dec-01 13:31N 50°38' E 000°42'1918.8
2016-Dec-01 12:30N 50°51' E 001°03'1717.8
2016-Dec-01 11:34N 51°02' E 001°23'1919.2
2016-Dec-01 10:34N 51°14' E 001°48'1716.6
2016-Dec-01 09:33N 51°22' E 002°11'1919.1
2016-Dec-01 08:33N 51°23' E 002°41'1414.1
2016-Dec-01 07:34N 51°24' E 003°04'1818.2
2016-Dec-01 06:33N 51°25' E 003°33'1110.8
2016-Dec-01 05:33N 51°21' E 003°49'1010.3
2016-Dec-01 04:34N 51°22' E 004°05'8 8.2
2016-Dec-01 03:33N 51°18' E 004°16'1 0.7
2016-Dec-01 02:33N 51°18' E 004°16'0 0.0
2016-Dec-01 01:33N 51°18' E 004°16'0 0.0
2016-Dec-01 00:30N 51°18' E 004°16'0 0.0
2016-Nov-30 23:18N 51°18' E 004°16'0 0.0
2016-Nov-30 22:33N 51°18' E 004°16'0 0.0
2016-Nov-30 21:30N 51°18' E 004°16'0 0.0
2016-Nov-30 20:33N 51°18' E 004°16'0 0.0
2016-Nov-30 19:33N 51°18' E 004°16'0 0.1
2016-Nov-30 18:33N 51°18' E 004°16'0 0.1
2016-Nov-30 17:33N 51°18' E 004°16'0 0.0
2016-Nov-30 16:33N 51°18' E 004°16'0 0.0
2016-Nov-30 15:33N 51°18' E 004°16'0 0.0
2016-Nov-30 14:33N 51°18' E 004°16'0 0.0
2016-Nov-30 13:33N 51°18' E 004°16'0 0.0
2016-Nov-30 12:33N 51°18' E 004°16'0 0.0
2016-Nov-30 11:30N 51°18' E 004°16'0 0.0
2016-Nov-30 10:33N 51°18' E 004°16'0 0.0
2016-Nov-30 09:33N 51°18' E 004°16'0 0.0
2016-Nov-30 08:33N 51°18' E 004°16'0 0.0
2016-Nov-30 07:33N 51°18' E 004°16'0 0.0
2016-Nov-30 06:33N 51°18' E 004°16'0 0.0
2016-Nov-30 05:33N 51°18' E 004°16'0 0.0
2016-Nov-30 04:33N 51°18' E 004°16'0 0.0
2016-Nov-30 03:33N 51°18' E 004°16'0 0.0
2016-Nov-30 02:32N 51°18' E 004°16'0 0.0
2016-Nov-30 01:32N 51°18' E 004°16'0 0.1
2016-Nov-30 00:34N 51°18' E 004°16'4 4.2
2016-Nov-29 23:33N 51°22' E 004°13'1010.3
2016-Nov-29 22:34N 51°25' E 003°58'1010.0
2016-Nov-29 21:33N 51°25' E 003°42'1211.5
2016-Nov-29 20:34N 51°24' E 003°23'1514.7
2016-Nov-29 19:33N 51°25' E 002°60'1615.9
2016-Nov-29 18:33N 51°39' E 003°11'9 9.3
2016-Nov-29 17:33N 51°48' E 003°16'5 4.4
2016-Nov-29 16:28N 51°49' E 003°24'0 0.1
2016-Nov-29 15:25N 51°49' E 003°24'0 0.1
2016-Nov-29 14:31N 51°49' E 003°24'0 0.0
2016-Nov-29 13:31N 51°49' E 003°24'0 0.1
2016-Nov-29 12:31N 51°49' E 003°24'0 0.3
2016-Nov-29 11:31N 51°49' E 003°24'0 0.0
2016-Nov-29 10:31N 51°49' E 003°24'0 0.0
2016-Nov-29 09:31N 51°49' E 003°24'0 0.0
2016-Nov-29 08:28N 51°49' E 003°24'0 0.0
2016-Nov-29 07:34N 51°49' E 003°24'0 0.0
2016-Nov-29 06:33N 51°49' E 003°24'0 0.1
2016-Nov-29 05:33N 51°49' E 003°24'0 0.1
2016-Nov-29 04:34N 51°49' E 003°24'0 0.1
2016-Nov-29 03:33N 51°49' E 003°24'0 0.0
2016-Nov-29 02:21N 51°49' E 003°24'0 0.0
2016-Nov-29 01:33N 51°49' E 003°24'0 0.1
2016-Nov-29 00:33N 51°49' E 003°24'0 0.2
2016-Nov-28 23:30N 51°49' E 003°24'0 0.1
2016-Nov-28 22:31N 51°49' E 003°24'0 0.0
2016-Nov-28 21:33N 51°49' E 003°24'0 0.0
2016-Nov-28 20:33N 51°49' E 003°24'0 0.0
2016-Nov-28 19:30N 51°49' E 003°24'0 0.0
2016-Nov-28 18:30N 51°49' E 003°24'0 0.0
2016-Nov-28 17:10N 51°49' E 003°24'0 0.0
2016-Nov-28 16:33N 51°49' E 003°24'0 0.3
2016-Nov-28 15:32N 51°49' E 003°23'8 7.0
2016-Nov-28 14:19N 51°57' E 003°21'1013.1
2016-Nov-28 13:32N 52°04' E 003°34'1313.6
2016-Nov-28 12:33N 52°03' E 003°55'8 7.5
2016-Nov-28 11:33N 51°58' E 004°05'0 0.4
2016-Nov-28 10:32N 51°58' E 004°04'0 0.0
2016-Nov-28 09:32N 51°58' E 004°04'0 0.0
2016-Nov-28 08:32N 51°58' E 004°04'0 0.0
2016-Nov-28 07:32N 51°58' E 004°04'0 0.0
2016-Nov-28 06:32N 51°58' E 004°04'  

Dump ship's entire track history